Time;durP1;ratioP1;P1;durP2;ratioP2;P2;SDS_P1;SDS_P2;PMS_P1;PMS_P2;Temp;Humidity;BMP_temperature;BMP_pressure;BME280_temperature;BME280_humidity;BME280_pressure;Samples;Min_cycle;Max_cycle;Signal;HPM_P1;HPM_P2
2022/06/12 00:01:28;;;;;;;12.57;8.18;;;;;;;13.60;98.46;68279.34;5027852;28;20045;-84
2022/06/12 00:03:54;;;;;;;12.63;7.43;;;;;;;;;;5007969;28;20041;-83
2022/06/12 00:06:21;;;;;;;13.77;7.95;;;;;;;13.53;98.83;68271.38;5010176;28;20044;-85
2022/06/12 00:08:47;;;;;;;14.35;8.32;;;;;;;13.47;99.47;68272.59;5007474;28;20548;-85
2022/06/12 00:11:14;;;;;;;10.93;8.07;;;;;;;;;;5022235;28;20044;-84
2022/06/12 00:13:49;;;;;;;11.40;7.60;;;;;;;13.44;99.70;68266.50;5007627;28;20854;-84
2022/06/12 00:16:15;;;;;;;11.43;7.93;;;;;;;;;;5007372;28;20563;-84
2022/06/12 00:18:41;;;;;;;13.75;8.10;;;;;;;13.34;100.00;68247.09;5009562;28;20042;-85
2022/06/12 00:21:11;;;;;;;10.75;8.07;;;;;;;13.30;100.00;68246.38;5007843;28;20065;-84
2022/06/12 00:23:42;;;;;;;13.02;8.18;;;;;;;;;;5010754;28;20700;-84
2022/06/12 00:26:08;;;;;;;13.07;8.38;;;;;;;;;;5008620;28;20512;-84
2022/06/12 00:28:34;;;;;;;12.02;7.85;;;;;;;13.22;100.00;68245.25;5009023;28;20056;-84
2022/06/12 00:31:00;;;;;;;12.55;8.70;;;;;;;13.20;100.00;68234.97;5021324;28;20037;-84
2022/06/12 00:33:25;;;;;;;12.23;8.77;;;;;;;;;;5027506;28;20034;-84
2022/06/12 00:35:50;;;;;;;14.40;8.52;;;;;;;13.09;100.00;68227.81;5008508;28;20492;-84
2022/06/12 00:38:16;;;;;;;12.95;8.18;;;;;;;13.01;100.00;68219.28;5009256;28;20045;-84
2022/06/12 00:40:41;;;;;;;12.20;8.90;;;;;;;;;;5024449;28;20036;-84
2022/06/12 00:43:07;;;;;;;14.20;9.30;;;;;;;;;;5026954;28;20048;-84
2022/06/12 00:45:32;;;;;;;12.25;8.43;;;;;;;;;;5027341;28;20522;-84
2022/06/12 00:48:01;;;;;;;13.27;9.15;;;;;;;12.83;100.00;68199.38;5007981;28;20044;-84
2022/06/12 00:50:28;;;;;;;13.18;9.13;;;;;;;12.81;100.00;68189.09;5026165;28;20519;-84
2022/06/12 00:52:55;;;;;;;13.68;8.85;;;;;;;12.75;100.00;68189.72;5026066;28;20045;-84
2022/06/12 00:55:24;;;;;;;16.10;9.63;;;;;;;;;;5009640;28;20045;-84
2022/06/12 00:57:50;;;;;;;13.88;9.50;;;;;;;;;;5025159;28;20045;-84
2022/06/12 01:00:16;;;;;;;16.63;9.77;;;;;;;12.79;100.00;68189.50;5024257;28;20053;-84
2022/06/12 01:02:42;;;;;;;12.98;9.85;;;;;;;;;;5025422;28;20102;-83
2022/06/12 01:07:57;;;;;;;14.63;9.27;;;;;;;12.83;100.00;68193.47;5025521;28;20047;-84
2022/06/12 01:10:25;;;;;;;14.48;9.35;;;;;;;;;;5009535;28;20038;-84
2022/06/12 01:12:55;;;;;;;13.57;9.18;;;;;;;;;;5025289;28;20124;-84
2022/06/12 01:15:26;;;;;;;13.45;9.73;;;;;;;12.85;100.00;68201.09;5011438;28;20066;-84
2022/06/12 01:17:53;;;;;;;13.70;9.32;;;;;;;12.84;100.00;68200.53;5022501;28;20124;-84
2022/06/12 01:20:20;;;;;;;14.43;9.85;;;;;;;;;;4998256;28;20062;-84
2022/06/12 01:22:46;;;;;;;14.85;9.55;;;;;;;;;;5001432;28;20124;-83
2022/06/12 01:25:13;;;;;;;12.70;8.95;;;;;;;12.80;100.00;68195.97;4991919;28;20529;-83
2022/06/12 01:27:41;;;;;;;16.35;9.52;;;;;;;;;;5001895;28;20053;-84
2022/06/12 01:30:18;;;;;;;13.47;10.10;;;;;;;12.78;100.00;68193.69;5007769;28;20111;-84
2022/06/12 01:33:07;;;;;;;12.52;9.25;;;;;;;12.65;100.00;68170.91;5024222;28;20566;-83
2022/06/12 01:35:46;;;;;;;12.95;9.07;;;;;;;12.58;100.00;68171.53;5026566;28;20095;-83
2022/06/12 01:38:18;;;;;;;13.88;9.02;;;;;;;;;;5007726;28;20052;-84
2022/06/12 01:40:52;;;;;;;12.18;9.13;;;;;;;;;;5008119;28;20055;-84
2022/06/12 01:43:23;;;;;;;11.68;8.70;;;;;;;;;;4976806;28;20033;-83
2022/06/12 01:46:01;;;;;;;13.63;9.23;;;;;;;12.53;100.00;68165.28;5025796;28;20044;-83
2022/06/12 01:48:32;;;;;;;13.85;9.52;;;;;;;12.46;100.00;68157.91;5007510;28;20041;-84
2022/06/12 01:51:00;;;;;;;14.73;9.57;;;;;;;;;;5007737;28;20042;-83
2022/06/12 01:53:25;;;;;;;13.38;9.52;;;;;;;;;;5007070;28;20543;-83
2022/06/12 01:55:56;;;;;;;15.77;9.43;;;;;;;12.23;100.00;68132.31;5026659;28;20188;-82
2022/06/12 01:58:28;;;;;;;15.15;9.77;;;;;;;;;;5025656;28;20065;-82
2022/06/12 02:01:05;;;;;;;12.85;9.02;;;;;;;12.11;100.00;68113.34;5008339;28;20683;-82
2022/06/12 02:03:36;;;;;;;14.23;9.57;;;;;;;;;;4999855;28;20057;-83
2022/06/12 02:06:17;;;;;;;12.27;9.05;;;;;;;12.08;100.00;68115.28;5018145;28;20096;-83
2022/06/12 02:08:48;;;;;;;12.57;8.50;;;;;;;;;;5026393;28;20042;-83
2022/06/12 02:14:07;;;;;;;15.57;9.00;;;;;;;;;;5017167;28;20574;-84
2022/06/12 02:16:35;;;;;;;14.68;9.65;;;;;;;;;;5026115;28;20104;-84
2022/06/12 02:19:08;;;;;;;14.80;9.77;;;;;;;11.87;100.00;68094.66;5024929;28;20121;-85
2022/06/12 02:21:41;;;;;;;12.13;9.65;;;;;;;;;;5008158;28;20037;-85
2022/06/12 02:24:13;;;;;;;12.73;9.70;;;;;;;;;;5007750;28;20092;-86
2022/06/12 02:26:42;;;;;;;14.02;9.48;;;;;;;;;;5009638;28;20041;-85
2022/06/12 02:29:13;;;;;;;13.90;9.65;;;;;;;11.71;100.00;68077.59;5010967;28;20050;-85
2022/06/12 02:31:42;;;;;;;12.40;9.45;;;;;;;11.73;100.00;68077.19;5028784;28;20599;-85
2022/06/12 02:34:12;;;;;;;12.40;9.90;;;;;;;;;;5028663;28;20399;-85
2022/06/12 02:36:46;;;;;;;13.27;9.93;;;;;;;11.65;100.00;68068.13;5028849;28;20288;-84
2022/06/12 02:39:20;;;;;;;14.65;9.73;;;;;;;11.63;100.00;68060.50;5010426;28;20103;-85
2022/06/12 02:41:53;;;;;;;13.57;9.23;;;;;;;11.58;100.00;68062.25;5028722;28;20037;-85
2022/06/12 02:44:26;;;;;;;12.10;8.77;;;;;;;11.52;100.00;68056.00;5027477;28;20038;-85
2022/06/12 02:46:56;;;;;;;14.73;9.05;;;;;;;;;;5011020;28;20038;-85
2022/06/12 02:49:22;;;;;;;13.23;9.40;;;;;;;11.49;100.00;68050.50;5028555;28;20053;-85
2022/06/12 02:52:00;;;;;;;15.68;9.38;;;;;;;11.46;100.00;68041.19;5010012;28;20060;-85
2022/06/12 02:54:32;;;;;;;11.48;8.55;;;;;;;11.39;100.00;68039.13;5010769;28;20142;-86
2022/06/12 02:57:22;;;;;;;16.27;9.57;;;;;;;11.38;100.00;68038.00;5026979;28;20041;-85
2022/06/12 02:59:56;;;;;;;12.40;9.02;;;;;;;11.38;100.00;68032.69;5009692;28;20026;-84
2022/06/12 03:02:25;;;;;;;12.43;7.80;;;;;;;11.31;100.00;68032.72;5021901;28;20037;-84
2022/06/12 03:04:58;;;;;;;16.27;9.45;;;;;;;11.29;100.00;68030.47;4994967;28;20516;-85
2022/06/12 03:07:24;;;;;;;12.80;7.93;;;;;;;11.30;100.00;68034.25;5027611;28;20691;-85
2022/06/12 03:09:49;;;;;;;15.52;9.18;;;;;;;;;;5025573;28;20042;-85
2022/06/12 03:12:15;;;;;;;13.85;8.75;;;;;;;11.22;100.00;68019.84;5014547;28;20044;-85
2022/06/12 03:14:41;;;;;;;14.60;8.70;;;;;;;11.20;100.00;68017.56;5028713;28;20049;-84
2022/06/12 03:17:06;;;;;;;15.40;9.20;;;;;;;;;;5011024;28;20410;-85
2022/06/12 03:19:42;;;;;;;13.63;8.55;;;;;;;11.05;100.00;68004.34;5010653;28;20408;-86
2022/06/12 03:22:20;;;;;;;15.45;8.77;;;;;;;11.11;100.00;68007.38;5026312;28;20083;-85
2022/06/12 03:25:01;;;;;;;14.18;8.82;;;;;;;11.06;100.00;68005.47;5008855;28;20046;-84
2022/06/12 03:27:39;;;;;;;13.30;9.45;;;;;;;11.06;100.00;68002.81;4994953;28;20049;-84
2022/06/12 03:30:17;;;;;;;12.35;9.38;;;;;;;11.04;100.00;67999.97;5018348;28;20052;-85
2022/06/12 03:32:55;;;;;;;10.93;9.55;;;;;;;11.03;100.00;67998.84;5021340;28;20116;-84
2022/06/12 03:35:54;;;;;;;15.68;9.80;;;;;;;10.98;100.00;67993.16;4998353;28;20037;-85
2022/06/12 03:38:22;;;;;;;11.93;8.50;;;;;;;10.92;100.00;67986.91;4957347;28;20038;-85
2022/06/12 03:41:17;;;;;;;14.75;9.25;;;;;;;10.90;100.00;67984.63;5009872;28;20041;-84
2022/06/12 03:44:00;;;;;;;15.68;9.40;;;;;;;10.89;100.00;67983.50;5013029;28;20393;-83
2022/06/12 03:46:33;;;;;;;18.25;9.82;;;;;;;;;;5009241;28;20088;-83
2022/06/12 03:49:28;;;;;;;15.77;10.02;;;;;;;10.92;100.00;67981.03;5026011;28;20499;-83
2022/06/12 03:52:14;;;;;;;11.35;8.65;;;;;;;10.91;100.00;67980.47;5008313;28;20042;-83
2022/06/12 03:54:56;;;;;;;14.38;8.95;;;;;;;;;;5027936;28;20038;-83
2022/06/12 03:57:52;;;;;;;10.82;8.48;;;;;;;10.87;100.00;67975.34;5009408;28;20041;-83
2022/06/12 04:00:41;;;;;;;18.90;8.60;;;;;;;10.94;100.00;67983.31;5025922;28;20397;-83
2022/06/12 04:03:09;;;;;;;;;;;;;;;10.96;100.00;67993.56;5009212;28;20413;-83
2022/06/12 04:05:45;;;;;;;11.52;7.95;;;;;;;;;;5029533;28;20297;-84
2022/06/12 04:08:14;;;;;;;12.80;8.98;;;;;;;;;;5007669;28;20666;-82
2022/06/12 04:10:40;;;;;;;12.35;8.88;;;;;;;10.97;100.00;67997.94;5013602;28;20045;-83
2022/06/12 04:13:08;;;;;;;12.82;8.90;;;;;;;;;;5013585;28;20033;-82
2022/06/12 04:15:48;;;;;;;12.82;8.40;;;;;;;11.10;100.00;68009.44;5025249;28;20045;-83
2022/06/12 04:18:13;;;;;;;11.70;7.82;;;;;;;;;;5009232;28;20406;-83
2022/06/12 04:20:59;;;;;;;9.80;7.68;;;;;;;11.17;100.00;68016.84;5027681;28;20049;-83
2022/06/12 04:23:38;;;;;;;13.00;8.35;;;;;;;11.26;100.00;68027.06;4991436;28;20099;-83
2022/06/12 04:26:19;;;;;;;13.48;7.20;;;;;;;11.29;100.00;68028.34;5008503;28;20049;-83
2022/06/12 04:28:45;;;;;;;12.75;7.35;;;;;;;;;;5001842;28;20059;-83
2022/06/12 04:31:16;;;;;;;13.05;7.15;;;;;;;;;;5008562;28;20428;-83
2022/06/12 04:33:55;;;;;;;13.32;7.28;;;;;;;11.63;100.00;68059.94;5025567;28;20053;-84
2022/06/12 04:36:20;;;;;;;9.50;5.95;;;;;;;;;;4987248;28;20176;-83
2022/06/12 04:38:46;;;;;;;10.77;5.38;;;;;;;;;;5017330;28;20057;-83
2022/06/12 04:41:18;;;;;;;9.48;5.18;;;;;;;;;;5024313;28;20550;-83
2022/06/12 04:43:44;;;;;;;11.52;4.40;;;;;;;12.40;97.48;68151.09;5010206;28;20061;-83
2022/06/12 04:46:09;;;;;;;8.93;3.30;;;;;;;;;;5015837;28;20125;-83
2022/06/12 04:48:39;;;;;;;7.50;3.10;;;;;;;12.80;94.13;68195.97;5021735;28;20053;-83
2022/06/12 04:51:06;;;;;;;9.57;3.20;;;;;;;13.02;92.68;68215.06;5025695;28;20029;-84
2022/06/12 04:53:31;;;;;;;11.32;3.30;;;;;;;13.18;91.85;68232.13;5027195;28;20128;-83
2022/06/12 04:55:57;;;;;;;13.18;3.22;;;;;;;13.26;91.20;68241.81;5008580;28;20132;-83
2022/06/12 04:58:23;;;;;;;9.02;3.10;;;;;;;13.40;90.57;68257.16;5010556;28;20037;-84
2022/06/12 05:00:48;;;;;;;8.43;2.92;;;;;;;13.53;89.56;68271.38;5024873;28;20411;-83
2022/06/12 05:03:14;;;;;;;12.35;4.07;;;;;;;13.66;89.18;68294.19;5022427;28;20111;-84
2022/06/12 05:05:41;;;;;;;8.80;3.60;;;;;;;13.75;88.75;68295.84;5020831;28;20037;-84
2022/06/12 05:08:06;;;;;;;9.38;3.40;;;;;;;13.82;89.27;68300.56;5025638;28;20420;-84
2022/06/12 05:10:32;;;;;;;8.65;3.00;;;;;;;13.89;88.75;68311.19;5026374;28;20079;-84
2022/06/12 05:12:57;;;;;;;12.13;3.72;;;;;;;13.99;87.82;68327.94;5007353;28;20042;-84
2022/06/12 05:15:22;;;;;;;9.48;3.33;;;;;;;;;;5027041;28;20091;-84
2022/06/12 05:17:49;;;;;;;9.18;2.85;;;;;;;;;;5020674;28;20064;-84
2022/06/12 05:20:19;;;;;;;12.00;3.38;;;;;;;14.32;86.53;68359.56;5007278;28;20458;-84
2022/06/12 05:22:44;;;;;;;9.88;3.00;;;;;;;;;;5024489;28;20058;-84
2022/06/12 05:25:10;;;;;;;9.43;3.42;;;;;;;14.39;86.38;68366.97;5007765;28;20084;-84
2022/06/12 05:27:36;;;;;;;9.48;3.30;;;;;;;14.49;85.24;68378.34;5007717;28;20037;-85
2022/06/12 05:30:01;;;;;;;10.82;3.33;;;;;;;14.61;85.61;68396.81;5026260;28;20522;-84
2022/06/12 05:32:27;;;;;;;9.52;2.85;;;;;;;14.64;84.53;68392.78;5007594;28;20041;-84
2022/06/12 05:34:53;;;;;;;11.57;2.97;;;;;;;14.72;84.50;68403.41;5025700;28;20033;-84
2022/06/12 05:37:20;;;;;;;10.40;4.03;;;;;;;14.79;84.34;68417.31;5025679;28;20096;-84
2022/06/12 05:39:45;;;;;;;14.38;2.90;;;;;;;;;;5025752;28;20068;-85
2022/06/12 05:42:10;;;;;;;14.02;3.85;;;;;;;;;;5024840;28;20069;-84
2022/06/12 05:44:36;;;;;;;7.78;3.22;;;;;;;;;;5009615;28;20050;-84
2022/06/12 05:47:02;;;;;;;13.57;3.58;;;;;;;;;;5008171;28;20052;-84
2022/06/12 05:49:27;;;;;;;12.75;3.63;;;;;;;;;;5001526;28;20053;-85
2022/06/12 05:51:53;;;;;;;9.40;2.83;;;;;;;15.25;82.88;68459.97;5018316;28;20484;-85
2022/06/12 05:54:19;;;;;;;8.70;3.15;;;;;;;15.29;83.04;68462.38;5009726;28;20128;-84
2022/06/12 05:56:44;;;;;;;12.98;3.53;;;;;;;;;;5008165;28;20048;-86
2022/06/12 05:59:09;;;;;;;12.50;3.67;;;;;;;;;;5026283;28;20037;-85
2022/06/12 06:01:38;;;;;;;10.43;3.40;;;;;;;15.48;82.50;68488.84;5009961;28;20656;-85
2022/06/12 06:04:03;;;;;;;8.02;3.20;;;;;;;;;;5005877;28;20410;-85
2022/06/12 06:06:31;;;;;;;9.10;2.78;;;;;;;;;;5012412;28;20045;-85
2022/06/12 06:08:57;;;;;;;9.55;2.80;;;;;;;15.58;80.61;68505.03;5010843;28;20041;-85
2022/06/12 06:11:22;;;;;;;9.60;2.85;;;;;;;;;;5009131;28;20033;-85
2022/06/12 06:13:48;;;;;;;7.13;2.78;;;;;;;15.71;79.86;68509.13;5013615;28;20187;-85
2022/06/12 06:16:14;;;;;;;9.55;3.20;;;;;;;15.73;79.51;68514.06;5012362;28;20041;-85
2022/06/12 06:18:40;;;;;;;10.98;3.20;;;;;;;15.82;79.47;68531.81;5007372;28;20025;-85
2022/06/12 06:21:11;;;;;;;11.68;3.03;;;;;;;15.93;78.89;68538.97;5025824;28;20044;-84
2022/06/12 06:23:38;;;;;;;8.35;3.08;;;;;;;15.94;77.85;68540.13;5020098;28;20223;-85
2022/06/12 06:26:04;;;;;;;10.57;3.60;;;;;;;;;;5027058;28;20052;-85
2022/06/12 06:28:30;;;;;;;7.35;2.38;;;;;;;16.09;76.95;68556.09;5011815;28;20041;-82
2022/06/12 06:30:56;;;;;;;8.13;3.00;;;;;;;16.11;76.56;68552.97;5011424;28;20072;-85
2022/06/12 06:33:21;;;;;;;7.97;2.80;;;;;;;16.15;76.78;68562.94;5029048;28;20061;-85
2022/06/12 06:35:47;;;;;;;13.98;3.05;;;;;;;16.24;77.21;68573.75;5011822;28;20049;-86
2022/06/12 06:38:12;;;;;;;9.35;2.90;;;;;;;;;;5009669;28;20030;-85
2022/06/12 06:40:38;;;;;;;11.27;3.17;;;;;;;16.32;77.06;68587.09;5028630;28;20045;-85
2022/06/12 06:43:03;;;;;;;11.10;2.90;;;;;;;;;;5027640;28;20041;-85
2022/06/12 06:48:13;;;;;;;13.25;3.20;;;;;;;;;;5018098;28;20403;-85
2022/06/12 06:50:40;;;;;;;8.15;3.25;;;;;;;16.57;77.83;68609.66;5008074;28;20120;-85
2022/06/12 06:53:06;;;;;;;12.50;4.05;;;;;;;16.65;78.90;68624.16;5010578;28;20072;-85
2022/06/12 06:55:32;;;;;;;10.25;3.03;;;;;;;16.80;79.19;68633.22;5012183;28;20041;-85
2022/06/12 06:57:57;;;;;;;11.07;4.18;;;;;;;;;;5027937;28;20038;-84
2022/06/12 07:00:24;;;;;;;13.57;3.60;;;;;;;;;;5011932;28;20055;-85
2022/06/12 07:02:50;;;;;;;12.45;3.80;;;;;;;;;;5009873;28;20053;-86
2022/06/12 07:05:17;;;;;;;9.85;3.63;;;;;;;16.97;79.69;68654.16;5026157;28;20053;-84
2022/06/12 07:07:42;;;;;;;12.02;3.78;;;;;;;16.89;79.55;68651.56;5029013;28;20060;-86
2022/06/12 07:10:11;;;;;;;16.70;3.60;;;;;;;16.86;80.01;68642.16;5022996;28;20061;-85
2022/06/12 07:12:37;;;;;;;10.45;3.53;;;;;;;16.98;80.50;68652.63;5010207;28;20049;-85
2022/06/12 07:15:02;;;;;;;11.55;3.63;;;;;;;;;;5004708;28;20038;-85
2022/06/12 07:17:27;;;;;;;12.20;3.92;;;;;;;;;;5025809;28;20046;-85
2022/06/12 07:19:53;;;;;;;13.48;4.10;;;;;;;17.42;79.43;68704.34;5009426;28;20044;-85
2022/06/12 07:22:18;;;;;;;15.13;4.47;;;;;;;17.47;79.72;68710.06;5000706;28;20128;-85
2022/06/12 07:24:46;;;;;;;11.20;4.35;;;;;;;17.44;79.13;68706.63;5008222;28;20049;-84
2022/06/12 07:27:12;;;;;;;13.63;3.92;;;;;;;17.40;79.62;68699.94;5006210;28;20117;-85
2022/06/12 07:29:37;;;;;;;13.88;4.72;;;;;;;17.43;78.92;68710.88;5010462;28;20643;-85
2022/06/12 07:32:03;;;;;;;20.67;5.45;;;;;;;17.45;79.78;68707.78;5006869;28;20038;-85
2022/06/12 07:34:29;;;;;;;14.45;4.75;;;;;;;17.58;80.13;68719.91;5021770;28;20042;-85
2022/06/12 07:36:55;;;;;;;14.65;4.43;;;;;;;17.69;80.18;68734.59;5022757;28;20053;-85
2022/06/12 07:39:24;;;;;;;14.48;4.78;;;;;;;17.74;79.66;68745.69;5022849;28;20542;-85
2022/06/12 07:41:51;;;;;;;16.50;3.83;;;;;;;17.80;78.84;68745.03;5023675;28;20034;-84
2022/06/12 07:44:20;;;;;;;12.50;4.63;;;;;;;;;;5020338;28;20060;-85
2022/06/12 07:46:50;;;;;;;15.97;4.33;;;;;;;;;;5010368;28;20046;-86
2022/06/12 07:49:17;;;;;;;14.93;4.35;;;;;;;18.21;78.40;68790.69;5022428;28;20057;-85
2022/06/12 07:51:43;;;;;;;14.25;4.90;;;;;;;18.22;77.24;68789.13;5024136;28;20396;-85
2022/06/12 07:54:08;;;;;;;15.93;3.78;;;;;;;;;;5009233;28;20095;-85
2022/06/12 07:56:33;;;;;;;14.23;4.40;;;;;;;;;;5027913;28;20083;-85
2022/06/12 07:58:59;;;;;;;14.70;4.68;;;;;;;18.17;77.14;68788.81;5026646;28;20034;-84
2022/06/12 08:01:28;;;;;;;14.68;4.35;;;;;;;18.05;76.59;68775.13;5010718;28;20072;-84
2022/06/12 08:03:54;;;;;;;;;;;;;;;18.07;77.67;68776.81;5011384;28;20035;-84
2022/06/12 08:06:19;;;;;;;13.57;4.30;;;;;;;;;;5028942;28;19916;-85
2022/06/12 08:08:45;;;;;;;13.70;4.40;;;;;;;18.21;78.29;68793.41;5029330;28;20091;-84
2022/06/12 08:11:12;;;;;;;13.52;5.10;;;;;;;18.36;77.15;68809.38;5010804;28;20511;-85
2022/06/12 08:13:38;;;;;;;13.38;4.50;;;;;;;18.44;77.26;68815.81;5020951;28;20041;-86
2022/06/12 08:16:04;;;;;;;13.85;4.93;;;;;;;18.48;77.29;68823.06;5008837;28;20045;-86
2022/06/12 08:18:30;;;;;;;15.77;4.80;;;;;;;18.56;76.79;68831.63;5027265;28;20047;-86
2022/06/12 08:20:59;;;;;;;14.35;4.32;;;;;;;18.70;76.27;68845.50;5022485;28;20443;-85
2022/06/12 08:23:37;;;;;;;12.82;4.70;;;;;;;18.62;75.14;68839.06;5009827;28;20045;-86
2022/06/12 08:26:07;;;;;;;11.90;3.83;;;;;;;18.62;75.21;68836.38;5018618;28;20038;-86
2022/06/12 08:28:39;;;;;;;12.90;4.40;;;;;;;18.63;75.46;68837.50;5010058;28;20045;-87
2022/06/12 08:31:06;;;;;;;16.65;5.32;;;;;;;;;;5002563;28;20033;-86
2022/06/12 08:33:33;;;;;;;18.10;4.70;;;;;;;18.69;75.42;68847.03;5009655;28;20043;-86
2022/06/12 08:35:59;;;;;;;15.40;5.45;;;;;;;18.69;75.87;68844.34;5008950;28;20041;-86
2022/06/12 08:38:25;;;;;;;15.65;4.60;;;;;;;18.91;76.23;68876.47;5009186;28;20144;-86
2022/06/12 08:40:50;;;;;;;16.77;3.80;;;;;;;18.97;75.23;68877.34;5002616;28;20567;-86
2022/06/12 08:43:15;;;;;;;14.27;4.38;;;;;;;;;;5008579;28;20045;-86
2022/06/12 08:45:50;;;;;;;17.37;4.50;;;;;;;19.08;73.21;68887.78;5026789;28;20681;-86
2022/06/12 08:48:31;;;;;;;17.27;5.13;;;;;;;19.01;74.28;68881.91;5008040;28;20363;-87
2022/06/12 08:51:11;;;;;;;15.05;4.10;;;;;;;19.15;73.36;68898.47;5026144;28;20034;-86
2022/06/12 08:54:04;;;;;;;13.57;3.40;;;;;;;19.25;71.53;68903.34;5006921;28;20171;-86
2022/06/12 08:56:38;;;;;;;11.95;3.38;;;;;;;;;;4994981;28;20500;-86
2022/06/12 08:59:15;;;;;;;14.30;3.38;;;;;;;;;;5007068;28;20041;-86
2022/06/12 09:01:42;;;;;;;13.15;3.75;;;;;;;19.29;71.37;68910.63;5003155;28;20136;-86
2022/06/12 09:04:11;;;;;;;13.30;3.80;;;;;;;19.37;70.99;68922.47;5004903;28;20084;-87
2022/06/12 09:06:51;;;;;;;10.63;3.70;;;;;;;19.31;69.46;68912.91;5020783;28;20104;-86
2022/06/12 09:09:38;;;;;;;12.68;3.75;;;;;;;19.33;70.13;68918.47;4996773;28;20201;-86
2022/06/12 09:12:21;;;;;;;15.32;4.13;;;;;;;;;;5008628;28;20048;-87
2022/06/12 09:14:55;;;;;;;9.68;3.13;;;;;;;19.56;68.36;68940.91;5008398;28;20052;-87
2022/06/12 09:17:54;;;;;;;12.88;3.67;;;;;;;19.60;69.30;68948.75;5006606;28;20089;-87
2022/06/12 09:20:45;;;;;;;8.15;4.00;;;;;;;19.64;70.83;68952.19;5019687;28;20248;-88
2022/06/12 09:23:45;;;;;;;14.55;3.65;;;;;;;19.68;70.97;68954.06;5019353;28;20110;-87
2022/06/12 09:26:19;;;;;;;10.57;3.95;;;;;;;;;;5018050;28;20077;-88
2022/06/12 09:29:34;;;;;;;11.55;3.95;;;;;;;19.68;70.32;68956.75;5007123;28;20120;-88
2022/06/12 09:32:21;;;;;;;13.40;4.07;;;;;;;20.00;70.41;68987.38;4971089;28;20034;-88
2022/06/12 09:34:53;;;;;;;12.95;4.32;;;;;;;20.23;69.47;69015.81;5006880;28;20566;-88
2022/06/12 09:40:12;;;;;;;8.77;3.42;;;;;;;20.20;66.82;69015.63;5027660;28;20651;-88
2022/06/12 09:43:03;;;;;;;12.95;3.72;;;;;;;20.13;66.10;69002.22;5021500;28;20045;-89
2022/06/12 09:45:29;;;;;;;13.07;4.25;;;;;;;20.12;67.94;69005.94;4988801;28;20046;-89
2022/06/12 09:48:20;;;;;;;12.05;3.65;;;;;;;20.32;68.41;69022.81;5026362;28;20037;-89
2022/06/12 09:50:58;;;;;;;14.82;4.20;;;;;;;20.35;64.60;69031.66;4993787;28;20424;-89
2022/06/12 09:54:17;;;;;;;10.75;3.67;;;;;;;20.46;65.94;69044.22;5010051;28;20129;-89
2022/06/12 09:56:58;;;;;;;10.80;3.67;;;;;;;20.76;66.37;69075.28;4966356;28;20068;-88
2022/06/12 09:59:28;;;;;;;9.98;3.42;;;;;;;20.97;64.42;69098.72;4998791;28;20089;-89
2022/06/12 10:01:55;;;;;;;13.40;2.75;;;;;;;;;;5029223;28;20042;-89
2022/06/12 10:04:36;;;;;;;8.38;2.47;;;;;;;20.71;60.22;69070.13;5027873;28;20042;-88
2022/06/12 10:07:12;;;;;;;8.00;2.53;;;;;;;20.60;60.33;69057.56;5017379;28;20041;-89
2022/06/12 10:09:47;;;;;;;10.02;2.35;;;;;;;20.61;59.99;69055.41;5023501;28;20113;-89
2022/06/12 10:12:23;;;;;;;11.15;2.50;;;;;;;20.90;60.15;69088.56;5014973;28;20049;-88
2022/06/12 10:14:57;;;;;;;8.27;3.13;;;;;;;20.85;56.34;69085.56;5008328;28;20115;-88
2022/06/12 10:17:35;;;;;;;10.82;3.03;;;;;;;;;;5020107;28;20046;-88
2022/06/12 10:20:17;;;;;;;11.57;2.50;;;;;;;21.02;58.95;69103.88;4990312;28;20034;-88
2022/06/12 10:22:47;;;;;;;7.55;2.40;;;;;;;20.88;58.12;69088.44;5002674;28;20041;-88
2022/06/12 10:25:37;;;;;;;9.73;2.92;;;;;;;20.84;59.84;69081.16;5022882;28;20071;-88
2022/06/12 10:28:20;;;;;;;6.78;2.92;;;;;;;20.82;59.01;69078.84;5026298;28;20033;-89
2022/06/12 10:31:11;;;;;;;7.85;2.60;;;;;;;20.88;57.77;69089.00;5027941;28;20046;-88
2022/06/12 10:33:46;;;;;;;9.10;2.63;;;;;;;21.04;59.22;69106.16;4971735;28;20051;-88
2022/06/12 10:36:17;;;;;;;9.15;2.58;;;;;;;;;;5026628;28;20065;-89
2022/06/12 10:38:43;;;;;;;11.30;2.83;;;;;;;21.33;57.07;69139.34;5027247;28;20037;-88
2022/06/12 10:41:22;;;;;;;9.70;2.92;;;;;;;21.20;57.15;69127.16;5025231;28;20040;-88
2022/06/12 10:43:49;;;;;;;11.38;2.35;;;;;;;21.37;59.22;69143.34;5012353;28;20056;-88
2022/06/12 10:46:15;;;;;;;9.30;2.10;;;;;;;21.51;55.98;69156.66;5007479;28;20049;-88
2022/06/12 10:48:42;;;;;;;6.80;2.20;;;;;;;21.59;56.58;69165.25;5009613;28;20053;-88
2022/06/12 10:51:13;;;;;;;10.70;3.00;;;;;;;21.49;56.61;69157.09;5019889;22;20127;-77
2022/06/12 10:53:39;;;;;;;6.97;2.25;;;;;;;21.57;56.40;69168.94;5010883;28;20155;-78
2022/06/12 10:56:07;;;;;;;13.23;2.47;;;;;;;21.68;56.73;69178.25;5014475;28;20121;-79
2022/06/12 10:59:09;;;;;;;8.85;2.60;;;;;;;21.70;56.00;69182.69;5012398;28;20034;-78
2022/06/12 11:01:49;;;;;;;7.00;2.70;;;;;;;21.56;54.17;69164.53;4983403;28;20047;-78
2022/06/12 11:04:43;;;;;;;10.60;2.38;;;;;;;21.19;56.69;69126.03;4981445;28;20046;-79
2022/06/12 11:07:18;;;;;;;12.93;2.85;;;;;;;21.07;58.19;69112.88;4988524;28;20046;-77
2022/06/12 11:10:11;;;;;;;11.82;2.72;;;;;;;21.23;55.98;69130.03;4991529;28;20085;-78
2022/06/12 11:13:05;;;;;;;8.38;2.55;;;;;;;21.43;57.26;69152.34;4994445;28;20185;-79
2022/06/12 11:15:59;;;;;;;6.68;2.05;;;;;;;21.35;52.43;69138.91;4991813;28;20042;-79
2022/06/12 11:18:43;;;;;;;6.53;2.10;;;;;;;21.52;52.67;69157.81;4935935;28;20052;-78
2022/06/12 11:21:37;;;;;;;7.30;2.10;;;;;;;21.67;52.10;69177.13;4975089;28;20497;-79
2022/06/12 11:24:08;;;;;;;5.88;2.13;;;;;;;21.85;51.08;69200.44;4991921;28;20050;-77
2022/06/12 11:27:20;;;;;;;7.38;1.95;;;;;;;22.10;51.12;69222.50;4991816;28;20042;-79
2022/06/12 11:30:04;;;;;;;9.23;2.25;;;;;;;22.07;50.27;69221.78;4973432;28;20084;-77
2022/06/12 11:32:35;;;;;;;5.88;1.90;;;;;;;22.14;50.25;69232.47;4956164;28;20065;-77
2022/06/12 11:35:33;;;;;;;8.20;1.80;;;;;;;22.15;49.76;69228.19;4986941;28;20042;-78
2022/06/12 11:38:21;;;;;;;7.05;2.10;;;;;;;21.92;47.67;69207.84;4988481;28;20093;-77
2022/06/12 11:41:00;;;;;;;10.55;2.25;;;;;;;;;;4940433;28;20042;-79
2022/06/12 11:43:31;;;;;;;9.05;2.40;;;;;;;21.99;49.76;69215.31;4970359;28;20109;-77
2022/06/12 11:46:23;;;;;;;7.70;1.88;;;;;;;22.07;50.01;69225.03;4973251;28;20058;-79
2022/06/12 11:48:58;;;;;;;6.63;1.77;;;;;;;;;;4952288;28;20046;-79
2022/06/12 11:51:48;;;;;;;8.10;2.22;;;;;;;22.26;50.63;69243.53;4982384;28;20525;-79
2022/06/12 11:54:37;;;;;;;8.05;2.90;;;;;;;22.33;51.28;69253.09;4984714;28;20037;-78
2022/06/12 11:57:12;;;;;;;7.57;2.00;;;;;;;22.45;50.29;69261.44;4993944;28;20085;-78
2022/06/12 11:59:46;;;;;;;6.07;1.95;;;;;;;22.35;49.97;69252.69;4988975;28;20078;-78
2022/06/12 12:02:34;;;;;;;7.78;2.20;;;;;;;22.27;51.81;69244.69;4974602;28;20053;-77
2022/06/12 12:05:08;;;;;;;9.02;1.83;;;;;;;22.38;49.60;69264.25;4974967;28;20095;-78
2022/06/12 12:08:15;;;;;;;8.32;2.00;;;;;;;22.43;49.22;69262.41;4991441;28;20049;-78
2022/06/12 12:10:49;;;;;;;8.40;2.08;;;;;;;22.29;49.21;69240.97;4927140;29;20048;-78
2022/06/12 12:13:20;;;;;;;7.05;2.10;;;;;;;22.28;48.93;69247.97;4963939;28;20046;-78
2022/06/12 12:15:52;;;;;;;5.32;1.60;;;;;;;22.27;47.36;69241.41;4976816;28;20053;-78
2022/06/12 12:18:37;;;;;;;6.53;1.90;;;;;;;22.40;47.48;69261.13;4992385;28;20041;-78
2022/06/12 12:21:09;;;;;;;7.15;1.92;;;;;;;22.68;47.04;69292.63;4992694;28;20486;-78
2022/06/12 12:23:39;;;;;;;4.68;1.50;;;;;;;22.90;46.32;69317.84;4986515;28;20047;-78
2022/06/12 12:26:14;;;;;;;5.32;1.70;;;;;;;22.79;46.68;69299.81;4989291;28;20541;-79
2022/06/12 12:28:45;;;;;;;7.80;2.10;;;;;;;22.92;48.37;69319.53;4990680;28;20047;-78
2022/06/12 12:31:13;;;;;;;6.20;1.92;;;;;;;23.08;46.37;69332.47;4990661;28;20038;-80
2022/06/12 12:33:41;;;;;;;7.15;2.00;;;;;;;22.89;44.84;69316.09;4987700;28;20045;-79
2022/06/12 12:41:47;;;;;;;10.82;2.35;;;;;;;23.09;46.83;69339.03;4981037;28;20109;-79
2022/06/12 12:44:16;;;;;;;6.20;2.00;;;;;;;23.22;44.64;69347.94;4971262;28;20274;-80
2022/06/12 12:46:51;;;;;;;6.50;2.08;;;;;;;23.07;46.01;69331.31;4975779;28;20520;-80
2022/06/12 12:49:26;;;;;;;6.85;2.28;;;;;;;23.09;46.55;69338.47;4971762;28;20121;-77
2022/06/12 12:52:14;;;;;;;5.88;1.98;;;;;;;23.04;45.68;69332.72;4990340;28;20045;-79
2022/06/12 12:54:46;;;;;;;6.43;2.05;;;;;;;22.89;46.16;69311.25;4958320;28;20042;-79